createdAt,value
2023-01-29T02:28:22.521Z,80537.46
2023-01-29T10:08:41.670Z,80066.92
2023-01-29T14:01:59.977Z,79683.09
2023-01-29T14:07:41.319Z,79693.16
2023-01-29T14:13:32.769Z,79686.11
2023-01-29T14:19:48.508Z,79704.23
2023-01-29T14:25:33.738Z,79716.33
2023-01-29T14:31:15.087Z,79713.30
2023-01-29T14:36:56.392Z,79728.42
2023-01-29T14:42:41.060Z,79722.38
2023-01-29T14:48:25.428Z,79734.46
2023-01-29T14:54:11.139Z,79727.41
2023-01-29T14:59:55.261Z,79713.30
2023-01-29T15:05:36.962Z,79711.29
2023-01-29T15:11:36.690Z,79708.27
2023-01-29T15:17:28.164Z,79727.41
2023-01-29T15:23:09.540Z,79709.28
2023-01-29T15:28:58.534Z,79699.20
2023-01-29T15:34:32.240Z,79675.02
2023-01-29T15:40:13.359Z,79689.13
2023-01-29T15:45:59.298Z,79682.08
2023-01-29T15:51:40.996Z,79689.13
2023-01-29T15:57:22.428Z,79691.14
2023-01-29T16:03:03.644Z,79710.28
2023-01-29T16:08:44.871Z,79708.27
2023-01-29T16:14:26.162Z,79723.38
2023-01-29T16:20:07.642Z,79710.28
2023-01-29T16:25:48.984Z,79720.36
2023-01-29T16:31:31.838Z,79724.39
2023-01-29T16:37:14.870Z,79730.43
2023-01-29T16:42:58.187Z,79741.52
2023-01-29T16:48:40.049Z,79756.63
2023-01-29T16:54:21.541Z,79763.67
2023-01-29T17:00:02.946Z,79756.63
2023-01-29T17:05:44.453Z,79763.67
2023-01-29T17:11:29.232Z,79768.71
2023-01-29T17:17:11.345Z,79783.83
2023-01-29T17:22:52.679Z,79770.73
2023-01-29T17:28:34.344Z,79763.67
2023-01-29T17:34:15.586Z,79755.62
2023-01-29T17:39:57.032Z,79765.69
2023-01-29T17:45:38.480Z,79760.66
2023-01-29T17:51:24.034Z,79727.41
2023-01-29T17:57:04.971Z,79708.27
2023-01-29T18:02:46.395Z,79720.36
2023-01-29T18:08:28.027Z,79717.34
2023-01-29T18:14:13.975Z,79699.20
2023-01-29T18:19:50.854Z,79713.30
2023-01-29T18:25:32.101Z,79698.19
2023-01-29T18:31:14.341Z,79688.13
2023-01-29T18:36:54.773Z,79713.30
2023-01-29T18:42:35.981Z,79672.00
2023-01-29T18:48:17.194Z,79672.00
2023-01-29T18:53:58.594Z,79688.13
2023-01-29T18:59:40.059Z,79685.09
2023-01-29T19:05:21.158Z,79692.15
2023-01-29T19:11:02.681Z,79652.86
2023-01-29T19:16:43.888Z,79650.84
2023-01-29T19:22:25.206Z,79642.78
2023-01-29T19:28:06.456Z,79648.83
2023-01-29T19:33:48.011Z,79625.66
2023-01-29T19:39:30.618Z,79620.63
2023-01-29T19:45:10.631Z,79611.56
2023-01-29T19:50:57.039Z,79622.64
2023-01-29T19:56:38.594Z,79604.51
2023-01-29T20:02:19.932Z,79600.48
2023-01-29T20:08:01.349Z,79609.55
2023-01-29T20:13:42.716Z,79584.36
2023-01-29T20:19:24.286Z,79593.42
2023-01-29T20:25:05.740Z,79598.47
2023-01-29T20:30:47.307Z,79579.33
2023-01-29T20:36:28.385Z,79570.26
2023-01-29T20:42:09.860Z,79566.23
2023-01-29T20:47:53.133Z,79577.31
2023-01-29T20:53:34.380Z,79561.19
2023-01-29T20:59:15.644Z,79572.27
2023-01-29T21:04:58.834Z,79560.19
2023-01-29T21:10:41.935Z,79550.11
2023-01-29T21:16:21.856Z,79542.05
2023-01-29T21:22:03.003Z,79537.02
2023-01-29T21:27:44.360Z,79525.94
2023-01-29T21:33:26.096Z,79522.91
2023-01-29T21:39:17.209Z,79502.77
2023-01-29T21:44:58.479Z,79488.66
2023-01-29T21:50:39.992Z,79477.58
2023-01-29T21:56:21.227Z,79483.63
2023-01-29T22:02:02.823Z,79452.40
2023-01-29T22:07:43.897Z,79466.50
2023-01-29T22:13:25.705Z,79425.20
2023-01-29T22:19:09.258Z,79391.95
2023-01-29T22:24:50.791Z,79375.84
2023-01-29T22:30:32.302Z,79402.03
2023-01-29T22:36:13.525Z,79390.95
2023-01-29T22:41:56.601Z,79387.93
2023-01-29T22:47:38.080Z,79394.98
2023-01-29T22:53:19.597Z,79360.73
2023-01-29T22:59:07.907Z,79361.73
2023-01-29T23:04:49.136Z,79329.51
2023-01-29T23:10:30.491Z,79316.41
2023-01-29T23:16:11.980Z,79320.44
2023-01-29T23:21:53.680Z,79279.14
2023-01-29T23:27:36.964Z,79265.04
2023-01-29T23:33:18.779Z,79234.82
2023-01-29T23:39:00.337Z,79237.84
2023-01-29T23:44:41.630Z,79202.59
2023-01-29T23:50:22.918Z,79180.43
2023-01-29T23:56:04.423Z,79175.39
